createdAt,value
2023-03-21T00:00:22.744Z,6.64
2023-03-21T00:00:56.019Z,6.64
2023-03-21T00:01:31.233Z,6.65
2023-03-21T00:02:06.032Z,6.64
2023-03-21T00:02:38.172Z,6.63
2023-03-21T00:03:13.644Z,6.65
2023-03-21T00:03:46.948Z,6.64
2023-03-21T00:04:19.092Z,6.64
2023-03-21T00:04:56.673Z,6.65
2023-03-21T00:05:30.919Z,6.64
2023-03-21T00:06:06.969Z,6.65
2023-03-21T00:06:41.752Z,6.63
2023-03-21T00:07:13.833Z,6.63
2023-03-21T00:07:45.921Z,6.62
2023-03-21T00:08:21.409Z,6.62
2023-03-21T00:08:53.645Z,6.61
2023-03-21T00:09:26.169Z,6.60
2023-03-21T00:10:12.398Z,6.60
2023-03-21T00:10:47.901Z,6.56
2023-03-21T00:11:20.033Z,6.56
2023-03-21T00:11:54.736Z,6.54
2023-03-21T00:12:26.937Z,6.55
2023-03-21T00:12:59.063Z,6.56
2023-03-21T00:13:32.803Z,6.57
2023-03-21T00:14:09.155Z,6.58
2023-03-21T00:14:41.766Z,6.58
2023-03-21T00:15:14.060Z,6.59
2023-03-21T00:16:19.298Z,6.60
2023-03-21T00:16:50.531Z,6.51
2023-03-21T00:17:32.609Z,6.51
2023-03-21T00:18:11.438Z,6.53
2023-03-21T00:18:46.656Z,6.54
2023-03-21T00:19:22.122Z,6.55
2023-03-21T00:19:54.506Z,6.57
2023-03-21T00:20:26.862Z,6.57
2023-03-21T00:21:35.315Z,6.59
2023-03-21T00:22:06.922Z,6.55
2023-03-21T00:22:42.470Z,6.54
2023-03-21T00:23:14.578Z,6.53
2023-03-21T00:23:47.771Z,6.55
2023-03-21T00:24:23.029Z,6.55
2023-03-21T00:24:55.603Z,6.55
2023-03-21T00:25:28.873Z,6.55
2023-03-21T00:26:01.534Z,6.56
2023-03-21T00:26:38.365Z,6.57
2023-03-21T00:27:39.371Z,6.57
2023-03-21T00:28:08.544Z,6.53
2023-03-21T00:28:42.629Z,6.53
2023-03-21T00:29:20.614Z,6.56
2023-03-21T00:29:52.694Z,6.56
2023-03-21T00:30:27.681Z,6.57
2023-03-21T00:31:18.095Z,6.57
2023-03-21T00:31:52.821Z,6.55
2023-03-21T00:32:28.552Z,6.58
2023-03-21T00:33:05.981Z,6.60
2023-03-21T00:33:47.533Z,6.60
2023-03-21T00:34:26.813Z,6.62
2023-03-21T00:35:45.391Z,6.60
2023-03-21T00:36:05.894Z,6.59
2023-03-21T00:36:39.077Z,6.61
2023-03-21T00:37:14.925Z,6.63
2023-03-21T00:37:50.664Z,6.64
2023-03-21T00:38:24.042Z,6.63
2023-03-21T00:38:56.416Z,6.64
2023-03-21T00:39:32.209Z,6.65
2023-03-21T00:40:16.206Z,6.64
2023-03-21T00:40:56.879Z,6.61
2023-03-21T00:41:43.131Z,6.61
2023-03-21T00:42:15.604Z,6.60
2023-03-21T00:42:47.988Z,6.63
2023-03-21T00:43:23.468Z,6.65
2023-03-21T00:43:55.921Z,6.66
2023-03-21T00:44:28.286Z,6.66
2023-03-21T00:45:03.025Z,6.68
2023-03-21T00:45:35.704Z,6.67
2023-03-21T00:46:08.052Z,6.68
2023-03-21T00:46:51.644Z,6.69
2023-03-21T00:47:35.375Z,6.66
2023-03-21T00:48:10.688Z,6.68
2023-03-21T00:48:42.914Z,6.68
2023-03-21T00:49:15.501Z,6.70
2023-03-21T00:49:50.156Z,6.72
2023-03-21T00:50:24.027Z,6.72
2023-03-21T00:50:59.477Z,6.72
2023-03-21T00:51:34.240Z,6.74
2023-03-21T00:52:17.182Z,6.75
2023-03-21T00:52:56.681Z,6.72
2023-03-21T00:53:32.834Z,6.72
2023-03-21T00:54:05.847Z,6.75
2023-03-21T00:54:38.272Z,6.75
2023-03-21T00:55:16.302Z,6.76
2023-03-21T00:55:48.957Z,6.74
2023-03-21T00:56:21.904Z,6.75
2023-03-21T00:56:57.543Z,6.75
2023-03-21T00:57:38.620Z,6.75
2023-03-21T00:58:11.845Z,6.72
2023-03-21T00:58:46.585Z,6.73
2023-03-21T00:59:18.743Z,6.72
2023-03-21T00:59:50.907Z,6.73
2023-03-21T01:00:25.834Z,6.74
2023-03-21T01:00:58.017Z,6.73
2023-03-21T01:01:32.422Z,6.75
2023-03-21T01:02:07.629Z,6.74
2023-03-21T01:03:14.148Z,6.75
2023-03-21T01:04:04.881Z,6.67
2023-03-21T01:04:37.061Z,6.66
2023-03-21T01:05:12.086Z,6.67
2023-03-21T01:06:07.365Z,6.69
2023-03-21T01:06:40.905Z,6.66
2023-03-21T01:07:13.037Z,6.67
2023-03-21T01:07:47.705Z,6.69
2023-03-21T01:08:26.848Z,6.69
2023-03-21T01:09:03.208Z,6.67
2023-03-21T01:09:38.028Z,6.68
2023-03-21T01:10:11.563Z,6.67
2023-03-21T01:10:46.256Z,6.68
2023-03-21T01:11:20.668Z,6.69
2023-03-21T01:11:56.522Z,6.69
2023-03-21T01:12:28.813Z,6.68
2023-03-21T01:13:01.306Z,6.68
2023-03-21T01:13:44.015Z,6.68
2023-03-21T01:14:23.855Z,6.65
2023-03-21T01:14:58.895Z,6.65
2023-03-21T01:15:32.074Z,6.65
2023-03-21T01:16:06.143Z,6.66
2023-03-21T01:16:41.722Z,6.62
2023-03-21T01:17:14.081Z,6.58
2023-03-21T01:17:48.788Z,6.58
2023-03-21T01:18:25.079Z,6.56
2023-03-21T01:18:59.813Z,6.56
2023-03-21T01:19:48.734Z,6.56
2023-03-21T01:20:23.755Z,6.53
2023-03-21T01:21:00.969Z,6.54
2023-03-21T01:21:33.697Z,6.54
2023-03-21T01:22:05.859Z,6.53
2023-03-21T01:22:40.537Z,6.54
2023-03-21T01:23:15.018Z,6.54
2023-03-21T01:23:47.348Z,6.54
2023-03-21T01:24:22.241Z,6.55
2023-03-21T01:25:00.621Z,6.56
2023-03-21T01:25:35.662Z,6.56
2023-03-21T01:26:11.040Z,6.57
2023-03-21T01:26:43.277Z,6.56
2023-03-21T01:27:15.949Z,6.57
2023-03-21T01:27:51.530Z,6.57
2023-03-21T01:28:26.637Z,6.57
2023-03-21T01:29:01.688Z,6.58
2023-03-21T01:29:33.852Z,6.58
2023-03-21T01:30:19.155Z,6.59
2023-03-21T01:30:53.293Z,6.57
2023-03-21T01:31:28.419Z,6.56
2023-03-21T01:32:00.604Z,6.57
2023-03-21T01:32:34.165Z,6.57
2023-03-21T01:33:09.070Z,6.57
2023-03-21T01:33:44.090Z,6.57
2023-03-21T01:34:16.308Z,6.57
2023-03-21T01:34:48.788Z,6.57
2023-03-21T01:35:23.970Z,6.57
2023-03-21T01:36:10.233Z,6.57
2023-03-21T01:36:47.988Z,6.53
2023-03-21T01:37:26.647Z,6.54
2023-03-21T01:37:59.784Z,6.56
2023-03-21T01:38:32.081Z,6.56
2023-03-21T01:39:08.737Z,6.56
2023-03-21T01:39:40.964Z,6.56
2023-03-21T01:40:17.468Z,6.56
2023-03-21T01:40:53.231Z,6.56
2023-03-21T01:41:47.753Z,6.55
2023-03-21T01:42:44.019Z,6.49
2023-03-21T01:43:25.848Z,6.49
2023-03-21T01:43:59.674Z,6.50
2023-03-21T01:44:56.785Z,6.47
2023-03-21T01:45:59.949Z,6.45
2023-03-21T01:47:10.544Z,6.42
2023-03-21T01:47:53.301Z,6.40
2023-03-21T01:48:32.071Z,6.41
2023-03-21T01:49:11.797Z,6.42
2023-03-21T01:49:48.012Z,6.42
2023-03-21T01:50:24.421Z,6.42
2023-03-21T01:51:22.758Z,6.39
2023-03-21T01:52:12.773Z,6.40
2023-03-21T01:52:50.606Z,6.40
2023-03-21T01:53:33.781Z,6.39
2023-03-21T01:54:11.679Z,6.39
2023-03-21T01:54:47.811Z,6.39
2023-03-21T01:55:20.258Z,6.41
2023-03-21T01:56:03.188Z,6.41
2023-03-21T01:57:01.901Z,6.38
2023-03-21T01:57:51.925Z,6.38
2023-03-21T01:58:32.075Z,6.36
2023-03-21T01:59:17.558Z,6.36
2023-03-21T02:00:12.729Z,6.30
2023-03-21T02:00:52.306Z,6.34
2023-03-21T02:01:38.427Z,6.35
2023-03-21T02:02:18.023Z,6.35
2023-03-21T02:03:15.233Z,6.34
2023-03-21T02:04:09.306Z,6.31
2023-03-21T02:04:58.620Z,6.30
2023-03-21T02:05:41.261Z,6.30
2023-03-21T02:06:22.056Z,6.32
2023-03-21T02:07:06.121Z,6.30
2023-03-21T02:07:46.688Z,6.29
2023-03-21T02:08:30.514Z,6.28
2023-03-21T02:09:23.409Z,6.27
2023-03-21T02:09:56.474Z,6.26
2023-03-21T02:10:32.231Z,6.28
2023-03-21T02:11:10.015Z,6.28
2023-03-21T02:11:47.606Z,6.28
2023-03-21T02:12:23.727Z,6.27
2023-03-21T02:13:09.655Z,6.28
2023-03-21T02:13:45.431Z,6.25
2023-03-21T02:14:29.410Z,6.26
2023-03-21T02:15:16.259Z,6.23
2023-03-21T02:16:18.218Z,6.21
2023-03-21T02:17:02.057Z,6.20
2023-03-21T02:17:42.607Z,6.21
2023-03-21T02:18:27.201Z,6.21
2023-03-21T02:19:29.584Z,6.21
2023-03-21T02:20:37.243Z,6.16
2023-03-21T02:21:43.089Z,6.12
2023-03-21T02:22:38.172Z,6.12
2023-03-21T02:23:34.176Z,6.11
2023-03-21T02:24:30.346Z,6.06
2023-03-21T02:25:41.543Z,6.06
2023-03-21T02:27:01.534Z,6.03
2023-03-21T02:27:44.739Z,6.02
2023-03-21T02:28:27.987Z,6.02
2023-03-21T02:29:09.070Z,6.04
2023-03-21T02:30:31.932Z,6.01
2023-03-21T02:31:27.256Z,5.99
2023-03-21T02:32:22.552Z,5.95
2023-03-21T02:33:34.798Z,5.90
2023-03-21T02:34:54.151Z,5.85
2023-03-21T02:35:51.892Z,5.82
2023-03-21T02:36:38.134Z,5.81
2023-03-21T02:37:36.570Z,5.81
2023-03-21T02:38:18.470Z,5.79
2023-03-21T02:38:59.967Z,5.79
2023-03-21T02:39:40.435Z,5.80
2023-03-21T02:40:23.464Z,5.79
2023-03-21T02:41:17.946Z,5.80
2023-03-21T02:41:56.463Z,5.76
2023-03-21T02:43:00.074Z,5.75
2023-03-21T02:43:43.078Z,5.67
2023-03-21T02:44:23.919Z,5.67
2023-03-21T02:45:01.854Z,5.61
2023-03-21T02:45:40.362Z,5.63
2023-03-21T02:46:17.689Z,5.65
2023-03-21T02:47:05.477Z,5.65
2023-03-21T02:47:43.883Z,5.64
2023-03-21T02:48:29.338Z,5.63
2023-03-21T02:49:12.808Z,5.61
2023-03-21T02:49:49.726Z,5.60
2023-03-21T02:50:27.619Z,5.60
2023-03-21T02:51:05.117Z,5.61
2023-03-21T02:51:40.716Z,5.62
2023-03-21T02:52:35.435Z,5.63
2023-03-21T02:53:16.164Z,5.61
2023-03-21T02:54:13.042Z,5.61
2023-03-21T02:54:49.053Z,5.59
2023-03-21T02:55:29.735Z,5.61
2023-03-21T02:56:10.822Z,5.62
2023-03-21T02:56:50.871Z,5.61
2023-03-21T02:57:33.790Z,5.64
2023-03-21T02:58:13.735Z,5.64
2023-03-21T02:58:56.920Z,5.64
2023-03-21T02:59:30.552Z,5.65
2023-03-21T03:00:16.731Z,5.66
2023-03-21T03:00:50.886Z,5.66
2023-03-21T03:01:34.419Z,5.65
2023-03-21T03:02:10.167Z,5.66
2023-03-21T03:02:42.354Z,5.67
2023-03-21T03:03:27.979Z,5.68
2023-03-21T03:04:06.983Z,5.66
2023-03-21T03:04:39.229Z,5.64
2023-03-21T03:05:21.203Z,5.66
2023-03-21T03:06:01.469Z,5.64
2023-03-21T03:06:47.342Z,5.62
2023-03-21T03:07:36.978Z,5.62
2023-03-21T03:08:41.233Z,5.59
2023-03-21T03:09:31.772Z,5.56
2023-03-21T03:10:22.652Z,5.56
2023-03-21T03:11:10.574Z,5.55
2023-03-21T03:11:47.458Z,5.56
2023-03-21T03:12:30.082Z,5.56
2023-03-21T03:13:16.442Z,5.53
2023-03-21T03:14:21.043Z,5.53
2023-03-21T03:15:08.771Z,5.49
2023-03-21T03:15:54.076Z,5.49
2023-03-21T03:16:37.002Z,5.49
2023-03-21T03:17:22.148Z,5.49
2023-03-21T03:18:03.483Z,5.49
2023-03-21T03:18:48.013Z,5.49
2023-03-21T03:19:31.215Z,5.49
2023-03-21T03:20:22.028Z,5.49
2023-03-21T03:21:07.239Z,5.48
2023-03-21T03:21:44.858Z,5.50
2023-03-21T03:22:26.961Z,5.51
2023-03-21T03:23:16.028Z,5.51
2023-03-21T03:23:55.306Z,5.51
2023-03-21T03:24:31.103Z,5.46
2023-03-21T03:25:19.757Z,5.46
2023-03-21T03:26:06.114Z,5.45
2023-03-21T03:26:41.477Z,5.47
2023-03-21T03:27:17.862Z,5.48
2023-03-21T03:27:55.736Z,5.49
2023-03-21T03:28:33.662Z,5.48
2023-03-21T03:29:12.388Z,5.48
2023-03-21T03:29:49.127Z,5.48
2023-03-21T03:30:39.285Z,5.46
2023-03-21T03:31:22.259Z,5.46
2023-03-21T03:32:02.501Z,5.45
2023-03-21T03:32:44.929Z,5.44
2023-03-21T03:33:23.602Z,5.43
2023-03-21T03:33:58.866Z,5.44
2023-03-21T03:34:39.667Z,5.45
2023-03-21T03:35:20.296Z,5.42
2023-03-21T03:36:04.927Z,5.43
2023-03-21T03:36:44.690Z,5.43
2023-03-21T03:37:26.503Z,5.41
2023-03-21T03:38:06.319Z,5.43
2023-03-21T03:41:23.857Z,5.30
2023-03-21T03:42:21.831Z,5.30
2023-03-21T03:43:37.084Z,5.28
2023-03-21T03:44:09.343Z,5.27
2023-03-21T03:44:45.589Z,5.28
2023-03-21T03:45:22.968Z,5.31
2023-03-21T03:46:00.360Z,5.32
2023-03-21T03:46:38.899Z,5.32
2023-03-21T03:47:29.880Z,5.33
2023-03-21T03:48:09.067Z,5.32
2023-03-21T03:48:52.567Z,5.32
2023-03-21T03:49:28.854Z,5.32
2023-03-21T03:50:04.933Z,5.34
2023-03-21T03:50:47.387Z,5.34
2023-03-21T03:51:26.280Z,5.34
2023-03-21T03:52:26.218Z,5.32
2023-03-21T03:53:19.212Z,5.31
2023-03-21T03:53:57.647Z,5.32
2023-03-21T03:54:37.251Z,5.33
2023-03-21T03:55:17.762Z,5.34
2023-03-21T03:55:55.032Z,5.35
2023-03-21T03:56:31.887Z,5.36
2023-03-21T03:57:07.304Z,5.38
2023-03-21T03:57:40.981Z,5.38
2023-03-21T03:58:22.889Z,5.39
2023-03-21T03:59:00.308Z,5.39
2023-03-21T03:59:50.316Z,5.39
2023-03-21T04:00:36.104Z,5.39
2023-03-21T04:01:08.614Z,5.41
2023-03-21T04:01:41.613Z,5.43
2023-03-21T04:02:17.547Z,5.46
2023-03-21T04:02:49.733Z,5.47
2023-03-21T04:03:26.417Z,5.49
2023-03-21T04:04:12.620Z,5.51
2023-03-21T04:04:47.170Z,5.50
2023-03-21T04:05:21.510Z,5.53
2023-03-21T04:05:56.630Z,5.53
2023-03-21T04:06:29.134Z,5.55
2023-03-21T04:07:03.570Z,5.55
2023-03-21T04:07:38.436Z,5.57
2023-03-21T04:08:11.109Z,5.57
2023-03-21T04:08:47.717Z,5.58
2023-03-21T04:09:31.500Z,5.58
2023-03-21T04:10:13.273Z,5.56
2023-03-21T04:10:49.693Z,5.58
2023-03-21T04:11:22.387Z,5.58
2023-03-21T04:12:00.890Z,5.59
2023-03-21T04:12:35.660Z,5.59
2023-03-21T04:13:43.443Z,5.53
2023-03-21T04:14:20.769Z,5.55
2023-03-21T04:14:53.342Z,5.57
2023-03-21T04:15:27.175Z,5.57
2023-03-21T04:16:08.941Z,5.57
2023-03-21T04:16:41.233Z,5.58
2023-03-21T04:17:13.372Z,5.59
2023-03-21T04:17:48.370Z,5.59
2023-03-21T04:18:23.142Z,5.59
2023-03-21T04:18:55.592Z,5.59
2023-03-21T04:19:31.398Z,5.58
2023-03-21T04:20:12.025Z,5.59
2023-03-21T04:20:45.415Z,5.58
2023-03-21T04:21:21.722Z,5.59
2023-03-21T04:21:54.004Z,5.59
2023-03-21T04:22:27.184Z,5.59
2023-03-21T04:23:02.111Z,5.61
2023-03-21T04:23:36.018Z,5.61
2023-03-21T04:24:08.779Z,5.61
2023-03-21T04:24:44.911Z,5.61
2023-03-21T04:25:30.638Z,5.61
2023-03-21T04:26:09.567Z,5.59
2023-03-21T04:26:46.570Z,5.58
2023-03-21T04:27:48.598Z,5.56
2023-03-21T04:28:39.926Z,5.52
2023-03-21T04:29:33.079Z,5.53
2023-03-21T04:30:07.530Z,5.55
2023-03-21T04:31:01.434Z,5.55
2023-03-21T04:31:41.724Z,5.54
2023-03-21T04:32:17.846Z,5.57
2023-03-21T04:33:01.181Z,5.57
2023-03-21T04:33:39.021Z,5.56
2023-03-21T04:34:12.771Z,5.57
2023-03-21T04:34:50.263Z,5.57
2023-03-21T04:35:26.936Z,5.57
2023-03-21T04:36:00.131Z,5.56
2023-03-21T04:36:39.415Z,5.58
2023-03-21T04:37:15.994Z,5.56
2023-03-21T04:37:48.217Z,5.57
2023-03-21T04:38:20.923Z,5.57
2023-03-21T04:38:57.346Z,5.57
2023-03-21T04:39:29.713Z,5.55
2023-03-21T04:40:06.269Z,5.56
2023-03-21T04:40:41.057Z,5.55
2023-03-21T04:41:13.374Z,5.55
2023-03-21T04:41:46.738Z,5.55
2023-03-21T04:42:21.756Z,5.54
2023-03-21T04:42:56.910Z,5.54
2023-03-21T04:43:29.547Z,5.54
2023-03-21T04:44:04.731Z,5.55
2023-03-21T04:44:37.377Z,5.55
2023-03-21T04:45:10.915Z,5.57
2023-03-21T04:45:47.007Z,5.58
2023-03-21T04:46:19.225Z,5.57
2023-03-21T04:46:55.027Z,5.58
2023-03-21T04:47:28.450Z,5.58
2023-03-21T04:48:04.491Z,5.58
2023-03-21T04:48:37.990Z,5.58
2023-03-21T04:49:10.568Z,5.58
2023-03-21T04:49:45.959Z,5.59
2023-03-21T04:50:18.180Z,5.59
2023-03-21T04:50:51.105Z,5.59
2023-03-21T04:51:25.915Z,5.59
2023-03-21T04:51:58.098Z,5.57
2023-03-21T04:52:30.234Z,5.57
2023-03-21T04:53:02.371Z,5.59
2023-03-21T04:53:38.520Z,5.58
2023-03-21T04:54:46.971Z,5.57
2023-03-21T04:55:21.807Z,5.56
2023-03-21T04:55:55.675Z,5.57
2023-03-21T04:56:32.475Z,5.58
2023-03-21T04:57:08.154Z,5.58
2023-03-21T04:57:40.452Z,5.57
2023-03-21T04:58:18.100Z,5.58
2023-03-21T04:58:51.440Z,5.57
2023-03-21T04:59:24.735Z,5.57
2023-03-21T05:00:00.531Z,5.59
2023-03-21T05:00:37.545Z,5.58
2023-03-21T05:01:10.908Z,5.58
2023-03-21T05:01:46.462Z,5.60
2023-03-21T05:04:09.847Z,5.54
2023-03-21T05:04:42.269Z,5.55
2023-03-21T05:05:14.539Z,5.58
2023-03-21T05:05:49.616Z,5.59
2023-03-21T05:06:24.049Z,5.60
2023-03-21T05:06:56.323Z,5.61
2023-03-21T05:07:32.842Z,5.63
2023-03-21T05:08:06.245Z,5.64
2023-03-21T05:08:38.558Z,5.64
2023-03-21T05:09:13.895Z,5.65
2023-03-21T05:09:46.400Z,5.66
2023-03-21T05:10:19.188Z,5.69
2023-03-21T05:10:54.001Z,5.69
2023-03-21T05:11:27.294Z,5.69
2023-03-21T05:12:02.136Z,5.72
2023-03-21T05:12:35.809Z,5.72
2023-03-21T05:13:08.012Z,5.73
2023-03-21T05:13:45.469Z,5.74
2023-03-21T05:14:19.739Z,5.74
2023-03-21T05:14:52.128Z,5.73
2023-03-21T05:15:27.079Z,5.74
2023-03-21T05:15:59.326Z,5.74
2023-03-21T05:16:31.879Z,5.75
2023-03-21T05:17:07.265Z,5.74
2023-03-21T05:17:42.826Z,5.73
2023-03-21T05:18:15.766Z,5.72
2023-03-21T05:19:07.413Z,5.71
2023-03-21T05:19:44.918Z,5.69
2023-03-21T05:20:17.868Z,5.71
2023-03-21T05:20:54.634Z,5.73
2023-03-21T05:21:29.677Z,5.75
2023-03-21T05:22:07.398Z,5.74
2023-03-21T05:22:40.689Z,5.75
2023-03-21T05:23:18.661Z,5.75
2023-03-21T05:23:54.719Z,5.77
2023-03-21T05:24:26.956Z,5.77
2023-03-21T05:25:04.124Z,5.78
2023-03-21T05:25:47.492Z,5.75
2023-03-21T05:26:24.372Z,5.75
2023-03-21T05:27:14.245Z,5.75
2023-03-21T05:27:54.312Z,5.75
2023-03-21T05:28:36.889Z,5.70
2023-03-21T05:29:12.278Z,5.71
2023-03-21T05:29:44.883Z,5.75
2023-03-21T05:30:21.313Z,5.78
2023-03-21T05:30:55.766Z,5.78
2023-03-21T05:31:30.776Z,5.82
2023-03-21T05:32:14.384Z,5.80
2023-03-21T05:32:46.794Z,5.80
2023-03-21T05:33:21.945Z,5.82
2023-03-21T05:33:54.429Z,5.83
2023-03-21T05:34:27.209Z,5.85
2023-03-21T05:35:02.640Z,5.87
2023-03-21T05:35:35.008Z,5.88
2023-03-21T05:36:11.480Z,5.88
2023-03-21T05:36:46.898Z,5.89
2023-03-21T05:37:19.069Z,5.92
2023-03-21T05:37:54.349Z,5.93
2023-03-21T05:38:31.242Z,5.94
2023-03-21T05:39:04.216Z,5.94
2023-03-21T05:39:38.764Z,5.95
2023-03-21T05:40:22.335Z,5.95
2023-03-21T05:40:54.711Z,5.96
2023-03-21T05:41:26.900Z,5.98
2023-03-21T05:42:01.756Z,6.00
2023-03-21T05:42:34.057Z,6.02
2023-03-21T05:43:15.048Z,6.02
2023-03-21T05:43:50.552Z,6.03
2023-03-21T05:44:25.506Z,6.04
2023-03-21T05:45:00.862Z,6.05
2023-03-21T05:45:35.904Z,6.07
2023-03-21T05:46:09.914Z,6.10
2023-03-21T05:46:46.777Z,6.11
2023-03-21T05:47:19.472Z,6.12
2023-03-21T05:47:52.929Z,6.13
2023-03-21T05:48:31.309Z,6.14
2023-03-21T05:49:24.577Z,6.13
2023-03-21T05:50:03.532Z,6.14
2023-03-21T05:50:38.858Z,6.15
2023-03-21T05:51:17.781Z,6.18
2023-03-21T05:51:54.047Z,6.20
2023-03-21T05:52:26.859Z,6.22
2023-03-21T05:52:59.089Z,6.23
2023-03-21T05:53:34.071Z,6.24
2023-03-21T05:54:06.788Z,6.23
2023-03-21T05:54:42.052Z,6.24
2023-03-21T05:55:14.600Z,6.25
2023-03-21T05:55:47.756Z,6.26
2023-03-21T05:56:36.605Z,6.25
2023-03-21T05:57:11.538Z,6.26
2023-03-21T05:58:18.456Z,6.22
2023-03-21T05:58:54.706Z,6.25
2023-03-21T05:59:31.012Z,6.28
2023-03-21T06:00:06.489Z,6.29
2023-03-21T06:00:47.636Z,6.30
2023-03-21T06:01:31.296Z,6.30
2023-03-21T06:02:13.081Z,6.32
2023-03-21T06:02:45.877Z,6.34
2023-03-21T06:03:53.033Z,6.33
2023-03-21T06:04:29.688Z,6.35
2023-03-21T06:05:01.994Z,6.39
2023-03-21T06:05:37.127Z,6.40
2023-03-21T06:06:16.263Z,6.40
2023-03-21T06:07:02.717Z,6.40
2023-03-21T06:07:35.657Z,6.42
2023-03-21T06:08:08.027Z,6.45
2023-03-21T06:08:43.002Z,6.47
2023-03-21T06:09:15.204Z,6.49
2023-03-21T06:09:54.722Z,6.50
2023-03-21T06:10:26.954Z,6.51
2023-03-21T06:10:59.034Z,6.54
2023-03-21T06:11:36.154Z,6.55
2023-03-21T06:12:34.574Z,6.52
2023-03-21T06:13:16.589Z,6.54
2023-03-21T06:13:48.769Z,6.56
2023-03-21T06:14:24.387Z,6.58
2023-03-21T06:15:21.611Z,6.59
2023-03-21T06:16:03.539Z,6.59
2023-03-21T06:16:38.439Z,6.61
2023-03-21T06:17:13.177Z,6.64
2023-03-21T06:17:53.438Z,6.63
2023-03-21T06:18:26.380Z,6.65
2023-03-21T06:19:13.296Z,6.64
2023-03-21T06:20:11.673Z,6.62
2023-03-21T06:20:54.531Z,6.64
2023-03-21T06:21:26.985Z,6.66
2023-03-21T06:21:59.218Z,6.69
2023-03-21T06:22:34.221Z,6.71
2023-03-21T06:23:07.760Z,6.72
2023-03-21T06:23:40.025Z,6.75
2023-03-21T06:24:14.876Z,6.77
2023-03-21T06:24:48.401Z,6.78
2023-03-21T06:25:23.402Z,6.79
2023-03-21T06:25:58.246Z,6.81
2023-03-21T06:26:31.873Z,6.82
2023-03-21T06:27:04.474Z,6.83
2023-03-21T06:27:53.743Z,6.83
2023-03-21T06:28:26.924Z,6.84
2023-03-21T06:28:59.111Z,6.85
2023-03-21T06:29:33.996Z,6.88
2023-03-21T06:30:08.795Z,6.88
2023-03-21T06:30:53.492Z,6.89
2023-03-21T06:31:29.559Z,6.89
2023-03-21T06:32:10.709Z,6.91
2023-03-21T06:32:43.140Z,6.92
2023-03-21T06:33:19.278Z,6.94
2023-03-21T06:33:54.443Z,6.96
2023-03-21T06:34:26.862Z,6.97
2023-03-21T06:34:58.969Z,6.98
2023-03-21T06:35:33.955Z,6.99
2023-03-21T06:36:07.078Z,7.00
2023-03-21T06:36:39.240Z,7.00
2023-03-21T06:37:14.253Z,7.00
2023-03-21T06:37:49.459Z,7.00
2023-03-21T06:38:26.210Z,7.01
2023-03-21T06:38:58.877Z,7.03
2023-03-21T06:39:33.973Z,7.05
2023-03-21T06:40:09.788Z,7.07
2023-03-21T06:40:42.013Z,7.06
2023-03-21T06:41:18.456Z,7.08
2023-03-21T06:42:00.429Z,7.09
2023-03-21T06:42:32.836Z,7.11
2023-03-21T06:43:14.544Z,7.11
2023-03-21T06:43:46.837Z,7.11
2023-03-21T06:44:22.181Z,7.14
2023-03-21T06:45:02.341Z,7.15
2023-03-21T06:45:34.826Z,7.17
2023-03-21T06:46:12.192Z,7.19
2023-03-21T06:46:44.811Z,7.20
2023-03-21T06:47:18.422Z,7.20
2023-03-21T06:47:54.578Z,7.21
2023-03-21T06:48:37.690Z,7.19
2023-03-21T06:49:12.620Z,7.19
2023-03-21T06:49:44.796Z,7.20
2023-03-21T06:50:19.141Z,7.22
2023-03-21T06:50:55.321Z,7.23
2023-03-21T06:51:29.164Z,7.24
2023-03-21T06:52:13.644Z,7.23
2023-03-21T06:52:46.654Z,7.24
2023-03-21T06:53:21.305Z,7.25
2023-03-21T06:54:18.046Z,7.21
2023-03-21T06:54:55.043Z,7.22
2023-03-21T06:55:30.675Z,7.24
2023-03-21T06:56:05.539Z,7.26
2023-03-21T06:56:38.510Z,7.27
2023-03-21T06:57:13.698Z,7.28
2023-03-21T06:57:46.492Z,7.30
2023-03-21T06:58:19.678Z,7.31
2023-03-21T06:58:54.623Z,7.34
2023-03-21T06:59:49.253Z,7.32
2023-03-21T07:00:29.445Z,7.34
2023-03-21T07:01:03.280Z,7.35
2023-03-21T07:01:43.262Z,7.37
2023-03-21T07:02:16.071Z,7.36
2023-03-21T07:02:54.504Z,7.37
2023-03-21T07:03:32.999Z,7.39
2023-03-21T07:04:06.457Z,7.40
2023-03-21T07:04:41.257Z,7.43
2023-03-21T07:05:18.995Z,7.44
2023-03-21T07:05:53.813Z,7.47
2023-03-21T07:06:27.406Z,7.48
2023-03-21T07:07:02.890Z,7.49
2023-03-21T07:07:35.068Z,7.51
2023-03-21T07:08:08.294Z,7.52
2023-03-21T07:08:43.847Z,7.53
2023-03-21T07:09:17.992Z,7.55
2023-03-21T07:09:50.544Z,7.57
2023-03-21T07:10:25.354Z,7.58
2023-03-21T07:11:07.721Z,7.59
2023-03-21T07:11:42.433Z,7.62
2023-03-21T07:12:14.566Z,7.62
2023-03-21T07:13:04.741Z,7.62
2023-03-21T07:13:50.454Z,7.66
2023-03-21T07:14:24.026Z,7.67
2023-03-21T07:14:58.777Z,7.70
2023-03-21T07:15:31.545Z,7.73
2023-03-21T07:16:04.013Z,7.75
2023-03-21T07:16:41.177Z,7.77
2023-03-21T07:17:16.094Z,7.78
2023-03-21T07:17:48.249Z,7.78
2023-03-21T07:18:23.211Z,7.79
2023-03-21T07:18:56.291Z,7.80
2023-03-21T07:19:28.519Z,7.82
2023-03-21T07:20:05.292Z,7.86
2023-03-21T07:20:38.206Z,7.86
2023-03-21T07:21:13.427Z,7.90
2023-03-21T07:21:45.873Z,7.91
2023-03-21T07:22:19.658Z,7.95
2023-03-21T07:22:54.384Z,7.96
2023-03-21T07:23:28.278Z,7.99
2023-03-21T07:24:00.499Z,8.00
2023-03-21T07:24:35.448Z,8.03
2023-03-21T07:25:09.072Z,8.05
2023-03-21T07:25:44.210Z,8.07
2023-03-21T07:26:19.305Z,8.08
2023-03-21T07:26:51.557Z,8.10
2023-03-21T07:27:23.670Z,8.13
2023-03-21T07:27:58.624Z,8.15
2023-03-21T07:28:31.505Z,8.17
2023-03-21T07:29:06.584Z,8.18
2023-03-21T07:29:38.872Z,8.18
2023-03-21T07:30:13.017Z,8.19
2023-03-21T07:30:48.770Z,8.20
2023-03-21T07:31:21.044Z,8.20
2023-03-21T07:31:54.366Z,8.21
2023-03-21T07:32:35.564Z,8.23
2023-03-21T07:33:09.656Z,8.23
2023-03-21T07:33:43.712Z,8.25
2023-03-21T07:34:19.044Z,8.26
2023-03-21T07:34:51.384Z,8.29
2023-03-21T07:35:23.634Z,8.30
2023-03-21T07:35:58.738Z,8.34
2023-03-21T07:36:30.852Z,8.35
2023-03-21T07:37:07.141Z,8.37
2023-03-21T07:37:39.926Z,8.40
2023-03-21T07:38:14.777Z,8.40
2023-03-21T07:38:49.658Z,8.42
2023-03-21T07:39:26.491Z,8.44
2023-03-21T07:39:58.862Z,8.46
2023-03-21T07:40:34.231Z,8.48
2023-03-21T07:41:07.141Z,8.51
2023-03-21T07:41:45.746Z,8.52
2023-03-21T07:42:37.183Z,8.52
2023-03-21T07:43:11.957Z,8.56
2023-03-21T07:43:47.660Z,8.56
2023-03-21T07:44:22.351Z,8.58
2023-03-21T07:44:59.629Z,8.58
2023-03-21T07:45:38.553Z,8.61
2023-03-21T07:46:13.356Z,8.60
2023-03-21T07:46:48.307Z,8.63
2023-03-21T07:47:21.657Z,8.65
2023-03-21T07:47:59.198Z,8.69
2023-03-21T07:48:31.594Z,8.71
2023-03-21T07:49:14.058Z,8.73
2023-03-21T07:49:46.824Z,8.73
2023-03-21T07:50:19.507Z,8.76
2023-03-21T07:50:54.912Z,8.79
2023-03-21T07:51:27.225Z,8.80
2023-03-21T07:52:00.077Z,8.84
2023-03-21T07:52:35.322Z,8.86
2023-03-21T07:53:07.835Z,8.89
2023-03-21T07:53:43.925Z,8.90
2023-03-21T07:54:19.375Z,8.92
2023-03-21T07:54:51.483Z,8.94
2023-03-21T07:55:26.324Z,8.97
2023-03-21T07:55:58.439Z,8.98
2023-03-21T07:56:33.275Z,8.99
2023-03-21T07:57:05.461Z,9.01
2023-03-21T07:57:37.705Z,9.03
2023-03-21T07:58:12.869Z,9.05
2023-03-21T07:58:45.027Z,9.07
2023-03-21T07:59:17.450Z,9.08
2023-03-21T07:59:52.165Z,9.10
2023-03-21T08:00:24.912Z,9.14
2023-03-21T08:01:02.274Z,9.15
2023-03-21T08:01:34.387Z,9.17
2023-03-21T08:02:09.200Z,9.21
2023-03-21T08:02:41.430Z,9.22
2023-03-21T08:03:17.081Z,9.23
2023-03-21T08:03:53.765Z,9.24
2023-03-21T08:04:26.276Z,9.25
2023-03-21T08:04:58.804Z,9.26
2023-03-21T08:05:37.461Z,9.28
2023-03-21T08:06:10.927Z,9.29
2023-03-21T08:06:45.736Z,9.32
2023-03-21T08:07:17.871Z,9.32
2023-03-21T08:07:50.331Z,9.35
2023-03-21T08:08:25.084Z,9.35
2023-03-21T08:08:57.183Z,9.35
2023-03-21T08:09:31.072Z,9.36
2023-03-21T08:10:06.175Z,9.34
2023-03-21T08:10:38.441Z,9.34
2023-03-21T08:11:14.462Z,9.34
2023-03-21T08:11:46.613Z,9.34
2023-03-21T08:12:18.801Z,9.36
2023-03-21T08:12:53.777Z,9.39
2023-03-21T08:13:26.282Z,9.42
2023-03-21T08:13:58.451Z,9.45
2023-03-21T08:14:33.358Z,9.48
2023-03-21T08:15:06.537Z,9.50
2023-03-21T08:15:42.554Z,9.53
2023-03-21T08:16:15.054Z,9.55
2023-03-21T08:16:49.806Z,9.57
2023-03-21T08:17:21.933Z,9.61
2023-03-21T08:17:56.702Z,9.63
2023-03-21T08:18:31.465Z,9.64
2023-03-21T08:19:06.418Z,9.67
2023-03-21T08:19:38.789Z,9.68
2023-03-21T08:20:14.080Z,9.70
2023-03-21T08:20:49.115Z,9.72
2023-03-21T08:21:21.333Z,9.73
2023-03-21T08:21:56.223Z,9.75
2023-03-21T08:22:28.328Z,9.76
2023-03-21T08:23:00.512Z,9.78
2023-03-21T08:23:36.332Z,9.81
2023-03-21T08:24:08.665Z,9.82
2023-03-21T08:24:43.318Z,9.83
2023-03-21T08:25:18.048Z,9.84
2023-03-21T08:25:54.844Z,9.87
2023-03-21T08:26:27.101Z,9.87
2023-03-21T08:26:59.255Z,9.87
2023-03-21T08:27:34.155Z,9.89
2023-03-21T08:28:06.343Z,9.91
2023-03-21T08:28:42.130Z,9.93
2023-03-21T08:29:14.352Z,9.95
2023-03-21T08:29:46.479Z,9.99
2023-03-21T08:30:23.294Z,10.00
2023-03-21T08:30:55.516Z,10.01
2023-03-21T08:31:28.504Z,10.03
2023-03-21T08:32:03.317Z,10.05